Nearby METAR Reports

 

KSJC - San Jose, California, USA
Distance from station: NE 9mi, 14km
Updated: Sun, 18-Aug-2019 8:53pm PDT
Few Clouds
Few Clouds
 Wind from S
Wind: S 8 mph , 13 km/h
Temperature: 66°F , 19°C
Dew Point: 63°F , 17°C
Humidity: 88%
Barometer: 29.88 inHg , 1011.9 hPa
Clouds: Few Clouds
Visibility: 10 miles , 16 km
Cloud details: Few Clouds 500 ft
Few Clouds 1500 ft
Few Clouds 8000 ft
2019/08/19 03:53 KSJC 190353Z 17007KT 10SM FEW005 FEW015 FEW080 19/17 A2988 RMK AO2 SLP118 T01890167 $
KNUQ - Moffett Nas/Mtn, California, USA
Distance from station: N 9mi, 14km
Updated: Sun, 18-Aug-2019 8:56pm PDT
Clear
Clear
 Wind from NNE
Wind: NNE 12 mph , 19 km/h
Temperature: 66°F , 19°C
Dew Point: 57°F , 14°C
Humidity: 73%
Barometer: 29.89 inHg , 1012.2 hPa
Clouds: Clear
Visibility: 10 miles , 16 km
2019/08/19 03:56 KNUQ 190356Z 03010KT 10SM CLR 19/14 A2989 RMK AO2 SLP123 T01890144
KPAO - Palo Alto, California, USA
Distance from station: NNW 14mi, 23km
Updated: Sun, 18-Aug-2019 8:47pm PDT
Clear
Clear
 Wind from SW
Wind: SW 8 mph , 13 km/h
Temperature: 63°F , 17°C
Dew Point: 55°F , 13°C
Humidity: 77%
Barometer: 29.88 inHg , 1011.9 hPa
Clouds: Clear
Visibility: 10 miles , 16 km
2019/08/19 03:47 KPAO 190347Z 23007KT 10SM SKC 17/13 A2988 RMK LAST
 
KRHV - San Jose/Reid, California, USA
Distance from station: ENE 12mi, 19km
Updated: Sun, 18-Aug-2019 8:50pm PDT
Clear
Clear
 Wind from S
Wind: S 12 mph , 19 km/h
Temperature: 64°F , 18°C
Dew Point: 55°F , 13°C
Humidity: 73%
Barometer: 29.88 inHg , 1011.9 hPa
Clouds: Clear
Visibility: 10 miles , 16 km
2019/08/19 03:50 KRHV 190350Z 17010KT 10SM SKC 18/13 A2988
KOAK - Oakland, California, USA
Distance from station: NNW 31mi, 50km
Updated: Sun, 18-Aug-2019 8:53pm PDT
Few Clouds
Few Clouds
 Wind from W
Wind: W 8 mph , 13 km/h
Temperature: 64°F , 18°C
Dew Point: 55°F , 13°C
Humidity: 73%
Barometer: 29.89 inHg , 1012.2 hPa
Clouds: Few Clouds
Visibility: 10 miles , 16 km
Cloud details: Few Clouds 1600 ft
2019/08/19 03:53 KOAK 190353Z 26007KT 10SM FEW016 18/13 A2989 RMK AO2 SLP121 T01780128
KSQL - San Carlos Airpo, California, USA
Distance from station: NW 21mi, 34km
Updated: Sun, 18-Aug-2019 8:58pm PDT
Clear
Clear
 Wind from WSW
Wind: WSW 5 mph , 7 km/h
Temperature: 63°F , 17°C
Dew Point: 54°F , 12°C
Humidity: 73%
Barometer: 29.89 inHg , 1012.2 hPa
Clouds: Clear
Visibility: 10 miles , 16 km
2019/08/19 03:58 KSQL 190358Z 25004KT 10SM SKC 17/12 A2989 RMK LAST
 
KSFO - San Francisco, California, USA
Distance from station: NW 30mi, 49km
Updated: Sun, 18-Aug-2019 8:56pm PDT
Few Clouds
Few Clouds
 Wind from SSW
Wind: SSW 8 mph , 13 km/h
Temperature: 64°F , 18°C
Dew Point: 54°F , 12°C
Humidity: 68%
Barometer: 29.88 inHg , 1011.9 hPa
Clouds: Few Clouds
Visibility: 10 miles , 16 km
Cloud details: Few Clouds 900 ft
2019/08/19 03:56 KSFO 190356Z 20007KT 10SM FEW009 18/12 A2988 RMK AO2 SLP118 T01780117
KE16 - San Martin, California, USA
Distance from station: ESE 27mi, 43km
Updated: Mon, 05-Aug-2019 10:10am PDT
NOT Current
Clear
Clear
 Wind from ESE
Wind: ESE 12 mph , 19 km/h
Temperature: 66°F , 19°C
Dew Point: 57°F , 14°C
Humidity: 73%
Barometer: 30.03 inHg , 1016.9 hPa
Clouds: Clear
Visibility: 10 miles , 16 km
2019/08/05 17:10 KE16 051710Z AUTO 12010KT 10SM CLR 19/14 A3003 RMK AO2
KWVI - Watsonville, California, USA
Distance from station: SSE 27mi, 44km
Updated: Sun, 18-Aug-2019 8:53pm PDT
Overcast
Overcast
 Wind from WSW
Wind: WSW 5 mph , 7 km/h
Temperature: 59°F , 15°C
Dew Point: 57°F , 14°C
Humidity: 94%
Barometer: 29.94 inHg , 1013.9 hPa
Clouds: Overcast
Visibility: 9 miles , 14 km
Cloud details: Partly cloudy 900 ft
Overcast 1400 ft
2019/08/19 03:53 KWVI 190353Z AUTO 25004KT 9SM SCT009 OVC014 15/14 A2994 RMK AO2 RAB02E12B32E39 SLP138 P0000 T01500139
 
KHAF - Half Moon Bay, California, USA
Distance from station: WNW 31mi, 50km
Updated: Sun, 18-Aug-2019 9:15pm PDT
Mist, Overcast
Mist, Overcast
 Wind from S
Wind: S 12 mph , 19 km/h
Temperature: 57°F , 14°C
Dew Point: 57°F , 14°C
Humidity: 100%
Barometer: 29.93 inHg , 1013.5 hPa
Summary: Mist
Clouds: Overcast
Visibility: 3 miles , 5 km
Cloud details: Few Clouds 400 ft
Overcast 1000 ft
2019/08/19 04:15 KHAF 190415Z AUTO 17010KT 3SM BR FEW004 OVC010 14/14 A2993 RMK AO2
KHWD - Hayward, California, USA
Distance from station: N 28mi, 44km
Updated: Sun, 18-Aug-2019 8:54pm PDT
Clear
Clear
 Wind from W
Wind: W 9 mph , 15 km/h
Temperature: 63°F , 17°C
Dew Point: 55°F , 13°C
Humidity: 77%
Barometer: 29.89 inHg , 1012.2 hPa
Clouds: Clear
Visibility: 10 miles , 16 km
2019/08/19 03:54 KHWD 190354Z 27008KT 10SM CLR 17/13 A2989 RMK AO2 SLP130 T01720128
KLVK - Livermore, California, USA
Distance from station: NNE 31mi, 51km
Updated: Sun, 18-Aug-2019 8:53pm PDT
Clear
Clear
 Wind from WNW
Wind: WNW 12 mph , 19 km/h
Temperature: 64°F , 18°C
Dew Point: 55°F , 13°C
Humidity: 73%
Barometer: 29.86 inHg , 1011.2 hPa
Clouds: Clear
Visibility: 10 miles , 16 km
2019/08/19 03:53 KLVK 190353Z 29010KT 10SM CLR 18/13 A2986 RMK AO2 SLP110 T01780133 $